sensor_id;sensor_type;location;lat;lon;timestamp;P1;durP1;ratioP1;P2;durP2;ratioP2
66830;SDS011;53739;44.224;22.528;2022-07-04T00:00:12;20.80;;;17.75;;
66830;SDS011;53739;44.224;22.528;2022-07-04T00:02:39;21.33;;;17.85;;
66830;SDS011;53739;44.224;22.528;2022-07-04T00:05:06;20.80;;;18.52;;
66830;SDS011;53739;44.224;22.528;2022-07-04T00:07:44;22.40;;;18.77;;
66830;SDS011;53739;44.224;22.528;2022-07-04T00:10:12;24.92;;;19.33;;
66830;SDS011;53739;44.224;22.528;2022-07-04T00:12:39;22.35;;;18.05;;
66830;SDS011;53739;44.224;22.528;2022-07-04T00:15:06;24.35;;;18.30;;
66830;SDS011;53739;44.224;22.528;2022-07-04T00:17:33;23.85;;;18.77;;
66830;SDS011;53739;44.224;22.528;2022-07-04T00:19:59;22.58;;;18.25;;
66830;SDS011;53739;44.224;22.528;2022-07-04T00:22:25;23.98;;;19.33;;
66830;SDS011;53739;44.224;22.528;2022-07-04T00:24:51;20.73;;;18.10;;
66830;SDS011;53739;44.224;22.528;2022-07-04T00:27:17;21.27;;;18.48;;
66830;SDS011;53739;44.224;22.528;2022-07-04T00:29:43;21.50;;;19.20;;
66830;SDS011;53739;44.224;22.528;2022-07-04T00:32:09;21.25;;;18.95;;
66830;SDS011;53739;44.224;22.528;2022-07-04T00:34:35;21.52;;;19.33;;
66830;SDS011;53739;44.224;22.528;2022-07-04T00:37:01;20.23;;;18.15;;
66830;SDS011;53739;44.224;22.528;2022-07-04T00:39:27;22.65;;;19.35;;
66830;SDS011;53739;44.224;22.528;2022-07-04T00:41:54;20.20;;;17.98;;
66830;SDS011;53739;44.224;22.528;2022-07-04T00:44:20;20.90;;;18.60;;
66830;SDS011;53739;44.224;22.528;2022-07-04T00:46:45;19.92;;;17.80;;
66830;SDS011;53739;44.224;22.528;2022-07-04T00:49:13;23.35;;;19.17;;
66830;SDS011;53739;44.224;22.528;2022-07-04T00:51:40;22.25;;;19.90;;
66830;SDS011;53739;44.224;22.528;2022-07-04T00:54:08;22.33;;;19.98;;
66830;SDS011;53739;44.224;22.528;2022-07-04T00:56:36;21.70;;;19.50;;
66830;SDS011;53739;44.224;22.528;2022-07-04T00:59:03;20.88;;;18.77;;
66830;SDS011;53739;44.224;22.528;2022-07-04T01:01:30;21.55;;;18.52;;
66830;SDS011;53739;44.224;22.528;2022-07-04T01:03:56;22.38;;;19.85;;
66830;SDS011;53739;44.224;22.528;2022-07-04T01:06:22;21.58;;;18.85;;
66830;SDS011;53739;44.224;22.528;2022-07-04T01:08:48;23.95;;;19.88;;
66830;SDS011;53739;44.224;22.528;2022-07-04T01:11:15;21.52;;;19.20;;
66830;SDS011;53739;44.224;22.528;2022-07-04T01:13:41;22.83;;;19.90;;
66830;SDS011;53739;44.224;22.528;2022-07-04T01:16:08;21.83;;;19.52;;
66830;SDS011;53739;44.224;22.528;2022-07-04T01:18:36;25.20;;;19.80;;
66830;SDS011;53739;44.224;22.528;2022-07-04T01:21:02;23.13;;;20.77;;
66830;SDS011;53739;44.224;22.528;2022-07-04T01:23:29;23.83;;;20.00;;
66830;SDS011;53739;44.224;22.528;2022-07-04T01:25:55;24.55;;;20.98;;
66830;SDS011;53739;44.224;22.528;2022-07-04T01:28:22;21.85;;;19.60;;
66830;SDS011;53739;44.224;22.528;2022-07-04T01:30:48;25.50;;;20.13;;
66830;SDS011;53739;44.224;22.528;2022-07-04T01:33:14;22.80;;;20.30;;
66830;SDS011;53739;44.224;22.528;2022-07-04T01:35:42;24.00;;;19.65;;
66830;SDS011;53739;44.224;22.528;2022-07-04T01:38:09;22.15;;;19.92;;
66830;SDS011;53739;44.224;22.528;2022-07-04T01:40:35;22.17;;;20.08;;
66830;SDS011;53739;44.224;22.528;2022-07-04T01:43:01;26.48;;;19.45;;
66830;SDS011;53739;44.224;22.528;2022-07-04T01:45:26;21.98;;;19.42;;
66830;SDS011;53739;44.224;22.528;2022-07-04T01:47:52;22.13;;;19.98;;
66830;SDS011;53739;44.224;22.528;2022-07-04T01:50:19;24.73;;;20.85;;
66830;SDS011;53739;44.224;22.528;2022-07-04T01:52:46;21.50;;;19.40;;
66830;SDS011;53739;44.224;22.528;2022-07-04T01:55:12;23.73;;;20.40;;
66830;SDS011;53739;44.224;22.528;2022-07-04T01:57:38;23.73;;;21.42;;
66830;SDS011;53739;44.224;22.528;2022-07-04T02:00:08;23.67;;;21.27;;
66830;SDS011;53739;44.224;22.528;2022-07-04T02:02:54;27.23;;;20.95;;
66830;SDS011;53739;44.224;22.528;2022-07-04T02:05:20;24.75;;;22.40;;
66830;SDS011;53739;44.224;22.528;2022-07-04T02:07:50;22.98;;;20.30;;
66830;SDS011;53739;44.224;22.528;2022-07-04T02:10:16;27.15;;;21.00;;
66830;SDS011;53739;44.224;22.528;2022-07-04T02:12:42;23.48;;;20.25;;
66830;SDS011;53739;44.224;22.528;2022-07-04T02:15:30;24.98;;;20.48;;
66830;SDS011;53739;44.224;22.528;2022-07-04T02:17:59;24.58;;;20.70;;
66830;SDS011;53739;44.224;22.528;2022-07-04T02:20:25;24.10;;;21.70;;
66830;SDS011;53739;44.224;22.528;2022-07-04T02:22:52;24.60;;;19.98;;
66830;SDS011;53739;44.224;22.528;2022-07-04T02:25:18;22.15;;;19.35;;
66830;SDS011;53739;44.224;22.528;2022-07-04T02:27:44;24.02;;;20.90;;
66830;SDS011;53739;44.224;22.528;2022-07-04T02:30:10;22.42;;;20.33;;
66830;SDS011;53739;44.224;22.528;2022-07-04T02:32:37;23.60;;;20.58;;
66830;SDS011;53739;44.224;22.528;2022-07-04T02:35:04;22.92;;;20.35;;
66830;SDS011;53739;44.224;22.528;2022-07-04T02:37:31;23.27;;;20.88;;
66830;SDS011;53739;44.224;22.528;2022-07-04T02:39:57;24.27;;;19.95;;
66830;SDS011;53739;44.224;22.528;2022-07-04T02:42:23;21.60;;;19.35;;
66830;SDS011;53739;44.224;22.528;2022-07-04T02:44:49;21.77;;;19.65;;
66830;SDS011;53739;44.224;22.528;2022-07-04T02:47:15;23.52;;;21.02;;
66830;SDS011;53739;44.224;22.528;2022-07-04T02:49:42;23.50;;;21.02;;
66830;SDS011;53739;44.224;22.528;2022-07-04T02:52:08;23.40;;;20.85;;
66830;SDS011;53739;44.224;22.528;2022-07-04T02:54:34;23.67;;;20.10;;
66830;SDS011;53739;44.224;22.528;2022-07-04T02:57:00;32.38;;;21.30;;
66830;SDS011;53739;44.224;22.528;2022-07-04T02:59:25;23.42;;;21.00;;
66830;SDS011;53739;44.224;22.528;2022-07-04T03:01:51;24.00;;;21.58;;
66830;SDS011;53739;44.224;22.528;2022-07-04T03:04:17;23.83;;;21.30;;
66830;SDS011;53739;44.224;22.528;2022-07-04T03:06:43;29.58;;;22.50;;
66830;SDS011;53739;44.224;22.528;2022-07-04T03:09:09;24.10;;;20.83;;
66830;SDS011;53739;44.224;22.528;2022-07-04T03:11:35;28.27;;;21.73;;
66830;SDS011;53739;44.224;22.528;2022-07-04T03:14:01;22.38;;;20.05;;
66830;SDS011;53739;44.224;22.528;2022-07-04T03:16:27;26.77;;;21.90;;
66830;SDS011;53739;44.224;22.528;2022-07-04T03:18:53;23.23;;;20.70;;
66830;SDS011;53739;44.224;22.528;2022-07-04T03:21:19;28.33;;;21.35;;
66830;SDS011;53739;44.224;22.528;2022-07-04T03:23:44;23.45;;;20.10;;
66830;SDS011;53739;44.224;22.528;2022-07-04T03:26:29;22.50;;;20.30;;
66830;SDS011;53739;44.224;22.528;2022-07-04T03:28:56;25.42;;;21.20;;
66830;SDS011;53739;44.224;22.528;2022-07-04T03:31:23;22.33;;;20.10;;
66830;SDS011;53739;44.224;22.528;2022-07-04T03:33:50;24.20;;;21.60;;
66830;SDS011;53739;44.224;22.528;2022-07-04T03:36:17;29.52;;;20.92;;
66830;SDS011;53739;44.224;22.528;2022-07-04T03:38:43;26.33;;;21.10;;
66830;SDS011;53739;44.224;22.528;2022-07-04T03:41:09;29.02;;;20.83;;
66830;SDS011;53739;44.224;22.528;2022-07-04T03:43:35;26.33;;;20.48;;
66830;SDS011;53739;44.224;22.528;2022-07-04T03:46:01;25.58;;;22.25;;
66830;SDS011;53739;44.224;22.528;2022-07-04T03:48:27;23.70;;;21.25;;
66830;SDS011;53739;44.224;22.528;2022-07-04T03:50:53;24.42;;;21.52;;
66830;SDS011;53739;44.224;22.528;2022-07-04T03:53:19;27.05;;;20.90;;
66830;SDS011;53739;44.224;22.528;2022-07-04T03:55:45;23.48;;;21.17;;
66830;SDS011;53739;44.224;22.528;2022-07-04T03:58:11;23.83;;;21.13;;
66830;SDS011;53739;44.224;22.528;2022-07-04T04:00:37;22.77;;;20.48;;
66830;SDS011;53739;44.224;22.528;2022-07-04T04:03:03;22.13;;;19.80;;
66830;SDS011;53739;44.224;22.528;2022-07-04T04:05:49;24.88;;;19.50;;
66830;SDS011;53739;44.224;22.528;2022-07-04T04:08:15;21.38;;;18.23;;
66830;SDS011;53739;44.224;22.528;2022-07-04T04:10:40;24.50;;;18.98;;
66830;SDS011;53739;44.224;22.528;2022-07-04T04:13:07;23.05;;;20.52;;
66830;SDS011;53739;44.224;22.528;2022-07-04T04:15:33;21.50;;;19.45;;
66830;SDS011;53739;44.224;22.528;2022-07-04T04:17:59;21.80;;;19.58;;
66830;SDS011;53739;44.224;22.528;2022-07-04T04:20:25;22.60;;;20.30;;
66830;SDS011;53739;44.224;22.528;2022-07-04T04:22:51;22.13;;;19.70;;
66830;SDS011;53739;44.224;22.528;2022-07-04T04:25:17;24.77;;;20.77;;
66830;SDS011;53739;44.224;22.528;2022-07-04T04:27:43;25.63;;;21.10;;
66830;SDS011;53739;44.224;22.528;2022-07-04T04:30:09;25.00;;;20.55;;
66830;SDS011;53739;44.224;22.528;2022-07-04T04:32:35;22.75;;;19.48;;
66830;SDS011;53739;44.224;22.528;2022-07-04T04:35:01;26.77;;;21.25;;
66830;SDS011;53739;44.224;22.528;2022-07-04T04:37:27;25.20;;;20.20;;
66830;SDS011;53739;44.224;22.528;2022-07-04T04:39:52;23.20;;;19.98;;
66830;SDS011;53739;44.224;22.528;2022-07-04T04:42:18;23.33;;;20.90;;
66830;SDS011;53739;44.224;22.528;2022-07-04T04:44:44;21.98;;;19.65;;
66830;SDS011;53739;44.224;22.528;2022-07-04T04:47:10;21.42;;;19.30;;
66830;SDS011;53739;44.224;22.528;2022-07-04T04:49:36;22.85;;;19.58;;
66830;SDS011;53739;44.224;22.528;2022-07-04T05:05:27;23.75;;;19.63;;
66830;SDS011;53739;44.224;22.528;2022-07-04T05:07:56;22.20;;;18.83;;
66830;SDS011;53739;44.224;22.528;2022-07-04T05:10:21;25.30;;;20.02;;
66830;SDS011;53739;44.224;22.528;2022-07-04T05:12:50;21.00;;;18.80;;
66830;SDS011;53739;44.224;22.528;2022-07-04T05:15:39;20.98;;;18.05;;
66830;SDS011;53739;44.224;22.528;2022-07-04T05:18:05;21.38;;;19.15;;
66830;SDS011;53739;44.224;22.528;2022-07-04T05:20:31;21.75;;;19.40;;
66830;SDS011;53739;44.224;22.528;2022-07-04T05:23:04;23.77;;;19.40;;
66830;SDS011;53739;44.224;22.528;2022-07-04T05:25:32;20.02;;;18.13;;
66830;SDS011;53739;44.224;22.528;2022-07-04T05:28:00;22.55;;;18.63;;
66830;SDS011;53739;44.224;22.528;2022-07-04T05:37:36;26.73;;;17.65;;
66830;SDS011;53739;44.224;22.528;2022-07-04T05:40:12;22.80;;;18.67;;
66830;SDS011;53739;44.224;22.528;2022-07-04T05:43:04;24.17;;;18.02;;
66830;SDS011;53739;44.224;22.528;2022-07-04T05:45:33;19.85;;;17.65;;
66830;SDS011;53739;44.224;22.528;2022-07-04T05:47:59;24.90;;;18.10;;
66830;SDS011;53739;44.224;22.528;2022-07-04T05:54:15;26.00;;;18.83;;
66830;SDS011;53739;44.224;22.528;2022-07-04T05:56:50;26.10;;;18.08;;
66830;SDS011;53739;44.224;22.528;2022-07-04T05:59:19;21.38;;;18.27;;
66830;SDS011;53739;44.224;22.528;2022-07-04T06:02:08;20.08;;;17.88;;
66830;SDS011;53739;44.224;22.528;2022-07-04T06:04:34;19.90;;;17.90;;
66830;SDS011;53739;44.224;22.528;2022-07-04T06:07:02;19.48;;;17.40;;
66830;SDS011;53739;44.224;22.528;2022-07-04T06:10:05;20.30;;;16.57;;
66830;SDS011;53739;44.224;22.528;2022-07-04T06:12:32;20.98;;;16.55;;
66830;SDS011;53739;44.224;22.528;2022-07-04T06:15:00;21.70;;;17.40;;
66830;SDS011;53739;44.224;22.528;2022-07-04T06:17:37;19.77;;;16.85;;
66830;SDS011;53739;44.224;22.528;2022-07-04T06:20:03;19.40;;;17.23;;
66830;SDS011;53739;44.224;22.528;2022-07-04T06:22:42;19.35;;;16.27;;
66830;SDS011;53739;44.224;22.528;2022-07-04T06:25:16;20.55;;;16.25;;
66830;SDS011;53739;44.224;22.528;2022-07-04T06:27:48;23.02;;;16.83;;
66830;SDS011;53739;44.224;22.528;2022-07-04T06:33:43;21.00;;;16.15;;
66830;SDS011;53739;44.224;22.528;2022-07-04T06:36:31;20.63;;;16.00;;
66830;SDS011;53739;44.224;22.528;2022-07-04T06:38:59;19.52;;;15.82;;
66830;SDS011;53739;44.224;22.528;2022-07-04T07:44:17;21.48;;;15.80;;
66830;SDS011;53739;44.224;22.528;2022-07-04T08:24:51;18.48;;;15.52;;
66830;SDS011;53739;44.224;22.528;2022-07-04T08:27:17;22.35;;;16.10;;
66830;SDS011;53739;44.224;22.528;2022-07-04T08:36:28;18.10;;;16.20;;
66830;SDS011;53739;44.224;22.528;2022-07-04T08:38:56;17.50;;;15.73;;
66830;SDS011;53739;44.224;22.528;2022-07-04T08:41:51;18.08;;;15.15;;
66830;SDS011;53739;44.224;22.528;2022-07-04T08:44:33;18.38;;;16.05;;
66830;SDS011;53739;44.224;22.528;2022-07-04T08:47:21;16.15;;;14.55;;
66830;SDS011;53739;44.224;22.528;2022-07-04T08:49:57;17.23;;;15.43;;
66830;SDS011;53739;44.224;22.528;2022-07-04T08:52:40;20.50;;;15.75;;
66830;SDS011;53739;44.224;22.528;2022-07-04T08:55:09;15.82;;;14.43;;
66830;SDS011;53739;44.224;22.528;2022-07-04T08:57:55;17.38;;;14.73;;
66830;SDS011;53739;44.224;22.528;2022-07-04T09:00:40;17.27;;;15.48;;
66830;SDS011;53739;44.224;22.528;2022-07-04T09:03:07;19.52;;;14.88;;
66830;SDS011;53739;44.224;22.528;2022-07-04T09:05:34;17.60;;;14.82;;
66830;SDS011;53739;44.224;22.528;2022-07-04T09:08:01;15.82;;;14.27;;
66830;SDS011;53739;44.224;22.528;2022-07-04T09:10:30;17.27;;;14.77;;
66830;SDS011;53739;44.224;22.528;2022-07-04T09:12:57;16.23;;;14.63;;
66830;SDS011;53739;44.224;22.528;2022-07-04T09:15:28;24.17;;;15.18;;
66830;SDS011;53739;44.224;22.528;2022-07-04T09:17:54;17.42;;;15.43;;
66830;SDS011;53739;44.224;22.528;2022-07-04T09:20:22;22.85;;;15.43;;
66830;SDS011;53739;44.224;22.528;2022-07-04T09:22:49;17.95;;;15.18;;
66830;SDS011;53739;44.224;22.528;2022-07-04T09:25:16;21.48;;;15.25;;
66830;SDS011;53739;44.224;22.528;2022-07-04T09:27:45;15.68;;;13.98;;
66830;SDS011;53739;44.224;22.528;2022-07-04T09:30:22;16.08;;;14.43;;
66830;SDS011;53739;44.224;22.528;2022-07-04T09:32:54;15.63;;;13.95;;
66830;SDS011;53739;44.224;22.528;2022-07-04T09:35:47;15.93;;;14.18;;
66830;SDS011;53739;44.224;22.528;2022-07-04T09:38:16;16.27;;;14.48;;
66830;SDS011;53739;44.224;22.528;2022-07-04T09:40:48;17.80;;;14.18;;
66830;SDS011;53739;44.224;22.528;2022-07-04T09:43:36;17.15;;;14.65;;
66830;SDS011;53739;44.224;22.528;2022-07-04T09:46:02;17.35;;;14.07;;
66830;SDS011;53739;44.224;22.528;2022-07-04T09:51:14;14.43;;;12.95;;
66830;SDS011;53739;44.224;22.528;2022-07-04T09:53:40;17.02;;;12.90;;
66830;SDS011;53739;44.224;22.528;2022-07-04T09:56:06;17.50;;;13.63;;
66830;SDS011;53739;44.224;22.528;2022-07-04T09:58:32;16.65;;;13.00;;
66830;SDS011;53739;44.224;22.528;2022-07-04T10:01:01;17.05;;;13.75;;
66830;SDS011;53739;44.224;22.528;2022-07-04T10:03:27;17.73;;;13.15;;
66830;SDS011;53739;44.224;22.528;2022-07-04T10:06:05;18.67;;;13.80;;
66830;SDS011;53739;44.224;22.528;2022-07-04T10:08:43;15.18;;;13.68;;
66830;SDS011;53739;44.224;22.528;2022-07-04T10:11:09;15.00;;;13.15;;
66830;SDS011;53739;44.224;22.528;2022-07-04T10:13:36;16.73;;;14.50;;
66830;SDS011;53739;44.224;22.528;2022-07-04T10:16:03;15.23;;;13.27;;
66830;SDS011;53739;44.224;22.528;2022-07-04T10:18:29;16.20;;;14.60;;
66830;SDS011;53739;44.224;22.528;2022-07-04T10:20:56;17.83;;;13.55;;
66830;SDS011;53739;44.224;22.528;2022-07-04T10:23:22;16.30;;;12.98;;
66830;SDS011;53739;44.224;22.528;2022-07-04T10:25:55;16.42;;;13.13;;
66830;SDS011;53739;44.224;22.528;2022-07-04T10:28:20;18.67;;;13.07;;
66830;SDS011;53739;44.224;22.528;2022-07-04T10:30:54;18.25;;;13.15;;
66830;SDS011;53739;44.224;22.528;2022-07-04T10:33:23;17.05;;;12.48;;
66830;SDS011;53739;44.224;22.528;2022-07-04T10:35:56;13.35;;;11.55;;
66830;SDS011;53739;44.224;22.528;2022-07-04T10:38:30;14.50;;;11.85;;
66830;SDS011;53739;44.224;22.528;2022-07-04T10:40:58;16.92;;;12.60;;
66830;SDS011;53739;44.224;22.528;2022-07-04T10:48:30;14.40;;;11.32;;
66830;SDS011;53739;44.224;22.528;2022-07-04T10:50:59;15.93;;;11.38;;
66830;SDS011;53739;44.224;22.528;2022-07-04T10:53:29;17.15;;;12.02;;
66830;SDS011;53739;44.224;22.528;2022-07-04T10:56:10;18.70;;;11.10;;
66830;SDS011;53739;44.224;22.528;2022-07-04T10:58:51;17.25;;;11.35;;
66830;SDS011;53739;44.224;22.528;2022-07-04T11:01:17;14.70;;;11.75;;
66830;SDS011;53739;44.224;22.528;2022-07-04T11:03:50;13.27;;;11.15;;
66830;SDS011;53739;44.224;22.528;2022-07-04T11:09:17;13.13;;;10.50;;
66830;SDS011;53739;44.224;22.528;2022-07-04T11:12:00;14.27;;;11.88;;
66830;SDS011;53739;44.224;22.528;2022-07-04T11:19:27;21.15;;;11.10;;
66830;SDS011;53739;44.224;22.528;2022-07-04T11:21:56;18.25;;;11.15;;
66830;SDS011;53739;44.224;22.528;2022-07-04T11:24:23;14.88;;;10.95;;
66830;SDS011;53739;44.224;22.528;2022-07-04T11:26:50;14.10;;;12.50;;
66830;SDS011;53739;44.224;22.528;2022-07-04T11:29:16;20.75;;;12.02;;
66830;SDS011;53739;44.224;22.528;2022-07-04T11:31:43;15.50;;;11.82;;
66830;SDS011;53739;44.224;22.528;2022-07-04T11:34:11;13.13;;;10.98;;
66830;SDS011;53739;44.224;22.528;2022-07-04T11:36:38;15.50;;;10.82;;
66830;SDS011;53739;44.224;22.528;2022-07-04T11:39:06;13.10;;;11.07;;
66830;SDS011;53739;44.224;22.528;2022-07-04T11:41:37;13.90;;;9.68;;
66830;SDS011;53739;44.224;22.528;2022-07-04T11:47:15;16.25;;;10.98;;
66830;SDS011;53739;44.224;22.528;2022-07-04T11:49:46;22.33;;;11.02;;
66830;SDS011;53739;44.224;22.528;2022-07-04T11:52:23;15.50;;;11.60;;
66830;SDS011;53739;44.224;22.528;2022-07-04T11:54:51;14.68;;;11.02;;
66830;SDS011;53739;44.224;22.528;2022-07-04T11:57:19;14.02;;;11.43;;
66830;SDS011;53739;44.224;22.528;2022-07-04T12:02:22;14.88;;;11.07;;
66830;SDS011;53739;44.224;22.528;2022-07-04T12:04:48;20.30;;;11.10;;
66830;SDS011;53739;44.224;22.528;2022-07-04T12:07:16;12.35;;;11.05;;
66830;SDS011;53739;44.224;22.528;2022-07-04T12:09:45;15.45;;;11.65;;
66830;SDS011;53739;44.224;22.528;2022-07-04T12:12:12;15.95;;;11.80;;
66830;SDS011;53739;44.224;22.528;2022-07-04T12:14:40;14.50;;;11.70;;
66830;SDS011;53739;44.224;22.528;2022-07-04T12:17:21;18.23;;;12.35;;
66830;SDS011;53739;44.224;22.528;2022-07-04T12:19:54;20.27;;;11.60;;
66830;SDS011;53739;44.224;22.528;2022-07-04T12:24:51;20.95;;;11.75;;
66830;SDS011;53739;44.224;22.528;2022-07-04T12:27:17;17.13;;;11.88;;
66830;SDS011;53739;44.224;22.528;2022-07-04T12:29:47;16.13;;;12.00;;
66830;SDS011;53739;44.224;22.528;2022-07-04T12:32:14;17.08;;;11.18;;
66830;SDS011;53739;44.224;22.528;2022-07-04T12:34:40;16.83;;;11.57;;
66830;SDS011;53739;44.224;22.528;2022-07-04T12:37:10;17.42;;;11.07;;
66830;SDS011;53739;44.224;22.528;2022-07-04T12:39:38;96.07;;;24.20;;
66830;SDS011;53739;44.224;22.528;2022-07-04T12:42:09;30.60;;;14.30;;
66830;SDS011;53739;44.224;22.528;2022-07-04T12:44:37;18.60;;;11.07;;
66830;SDS011;53739;44.224;22.528;2022-07-04T12:47:07;20.85;;;11.95;;
66830;SDS011;53739;44.224;22.528;2022-07-04T12:49:34;18.08;;;12.55;;
66830;SDS011;53739;44.224;22.528;2022-07-04T12:52:05;21.83;;;11.88;;
66830;SDS011;53739;44.224;22.528;2022-07-04T12:54:36;18.33;;;11.48;;
66830;SDS011;53739;44.224;22.528;2022-07-04T12:57:07;14.00;;;10.23;;
66830;SDS011;53739;44.224;22.528;2022-07-04T12:59:36;15.80;;;10.45;;
66830;SDS011;53739;44.224;22.528;2022-07-04T13:02:09;14.45;;;10.77;;
66830;SDS011;53739;44.224;22.528;2022-07-04T13:04:41;15.10;;;9.93;;
66830;SDS011;53739;44.224;22.528;2022-07-04T13:07:13;15.35;;;9.73;;
66830;SDS011;53739;44.224;22.528;2022-07-04T13:09:42;13.30;;;9.98;;
66830;SDS011;53739;44.224;22.528;2022-07-04T13:12:08;17.60;;;10.68;;
66830;SDS011;53739;44.224;22.528;2022-07-04T13:14:57;16.75;;;9.73;;
66830;SDS011;53739;44.224;22.528;2022-07-04T13:17:25;12.15;;;9.60;;
66830;SDS011;53739;44.224;22.528;2022-07-04T13:19:51;16.27;;;9.93;;
66830;SDS011;53739;44.224;22.528;2022-07-04T13:22:18;14.35;;;10.20;;
66830;SDS011;53739;44.224;22.528;2022-07-04T13:24:45;18.67;;;10.60;;
66830;SDS011;53739;44.224;22.528;2022-07-04T13:27:11;15.38;;;9.52;;
66830;SDS011;53739;44.224;22.528;2022-07-04T13:29:37;13.55;;;9.93;;
66830;SDS011;53739;44.224;22.528;2022-07-04T13:32:03;18.65;;;10.25;;
66830;SDS011;53739;44.224;22.528;2022-07-04T13:34:30;12.15;;;10.35;;
66830;SDS011;53739;44.224;22.528;2022-07-04T13:36:56;14.80;;;10.25;;
66830;SDS011;53739;44.224;22.528;2022-07-04T13:39:22;13.38;;;10.15;;
66830;SDS011;53739;44.224;22.528;2022-07-04T13:41:48;16.55;;;11.40;;
66830;SDS011;53739;44.224;22.528;2022-07-04T13:44:14;19.23;;;10.32;;
66830;SDS011;53739;44.224;22.528;2022-07-04T13:46:41;16.48;;;11.32;;
66830;SDS011;53739;44.224;22.528;2022-07-04T13:49:08;16.90;;;9.52;;
66830;SDS011;53739;44.224;22.528;2022-07-04T13:51:34;15.18;;;8.50;;
66830;SDS011;53739;44.224;22.528;2022-07-04T13:54:00;16.15;;;10.65;;
66830;SDS011;53739;44.224;22.528;2022-07-04T13:56:26;12.05;;;9.15;;
66830;SDS011;53739;44.224;22.528;2022-07-04T13:58:53;14.52;;;10.07;;
66830;SDS011;53739;44.224;22.528;2022-07-04T14:01:19;13.95;;;10.02;;
66830;SDS011;53739;44.224;22.528;2022-07-04T14:03:47;13.48;;;9.80;;
66830;SDS011;53739;44.224;22.528;2022-07-04T14:06:14;13.02;;;9.40;;
66830;SDS011;53739;44.224;22.528;2022-07-04T14:08:45;17.60;;;9.77;;
66830;SDS011;53739;44.224;22.528;2022-07-04T14:11:11;15.57;;;10.48;;
66830;SDS011;53739;44.224;22.528;2022-07-04T14:13:37;21.23;;;8.80;;
66830;SDS011;53739;44.224;22.528;2022-07-04T14:16:04;14.93;;;9.38;;
66830;SDS011;53739;44.224;22.528;2022-07-04T14:18:31;14.40;;;9.07;;
66830;SDS011;53739;44.224;22.528;2022-07-04T14:20:58;17.75;;;10.55;;
66830;SDS011;53739;44.224;22.528;2022-07-04T14:23:23;13.15;;;9.57;;
66830;SDS011;53739;44.224;22.528;2022-07-04T14:26:08;9.45;;;8.50;;
66830;SDS011;53739;44.224;22.528;2022-07-04T14:28:36;14.82;;;9.68;;
66830;SDS011;53739;44.224;22.528;2022-07-04T14:31:03;13.98;;;9.65;;
66830;SDS011;53739;44.224;22.528;2022-07-04T14:33:29;13.93;;;9.77;;
66830;SDS011;53739;44.224;22.528;2022-07-04T14:35:55;13.88;;;10.30;;
66830;SDS011;53739;44.224;22.528;2022-07-04T14:38:21;18.83;;;8.85;;
66830;SDS011;53739;44.224;22.528;2022-07-04T14:40:47;13.90;;;10.85;;
66830;SDS011;53739;44.224;22.528;2022-07-04T14:43:15;15.38;;;10.93;;
66830;SDS011;53739;44.224;22.528;2022-07-04T14:45:44;15.00;;;10.00;;
66830;SDS011;53739;44.224;22.528;2022-07-04T14:48:12;15.45;;;10.25;;
66830;SDS011;53739;44.224;22.528;2022-07-04T14:50:41;13.55;;;9.93;;
66830;SDS011;53739;44.224;22.528;2022-07-04T14:53:07;21.73;;;10.32;;
66830;SDS011;53739;44.224;22.528;2022-07-04T14:55:33;13.90;;;9.07;;
66830;SDS011;53739;44.224;22.528;2022-07-04T14:57:59;16.45;;;9.68;;
66830;SDS011;53739;44.224;22.528;2022-07-04T15:00:25;15.13;;;10.18;;
66830;SDS011;53739;44.224;22.528;2022-07-04T15:02:52;18.25;;;9.75;;
66830;SDS011;53739;44.224;22.528;2022-07-04T15:05:18;19.58;;;9.38;;
66830;SDS011;53739;44.224;22.528;2022-07-04T15:07:43;14.00;;;9.38;;
66830;SDS011;53739;44.224;22.528;2022-07-04T15:10:09;14.68;;;9.02;;
66830;SDS011;53739;44.224;22.528;2022-07-04T15:12:37;13.90;;;9.27;;
66830;SDS011;53739;44.224;22.528;2022-07-04T15:15:03;19.23;;;9.70;;
66830;SDS011;53739;44.224;22.528;2022-07-04T15:17:29;11.15;;;8.93;;
66830;SDS011;53739;44.224;22.528;2022-07-04T15:19:55;15.75;;;9.45;;
66830;SDS011;53739;44.224;22.528;2022-07-04T15:22:39;12.65;;;9.18;;
66830;SDS011;53739;44.224;22.528;2022-07-04T15:25:23;14.02;;;9.25;;
66830;SDS011;53739;44.224;22.528;2022-07-04T15:27:49;16.40;;;8.77;;
66830;SDS011;53739;44.224;22.528;2022-07-04T15:30:16;14.77;;;8.40;;
66830;SDS011;53739;44.224;22.528;2022-07-04T15:32:42;19.05;;;8.40;;
66830;SDS011;53739;44.224;22.528;2022-07-04T15:35:08;15.27;;;7.65;;
66830;SDS011;53739;44.224;22.528;2022-07-04T15:37:34;14.60;;;7.93;;
66830;SDS011;53739;44.224;22.528;2022-07-04T15:40:00;17.00;;;9.52;;
66830;SDS011;53739;44.224;22.528;2022-07-04T15:42:28;49.53;;;17.75;;
66830;SDS011;53739;44.224;22.528;2022-07-04T15:44:56;18.00;;;8.45;;
66830;SDS011;53739;44.224;22.528;2022-07-04T15:47:22;18.45;;;7.30;;
66830;SDS011;53739;44.224;22.528;2022-07-04T15:49:50;12.45;;;6.70;;
66830;SDS011;53739;44.224;22.528;2022-07-04T15:52:16;12.57;;;6.97;;
66830;SDS011;53739;44.224;22.528;2022-07-04T15:54:42;13.23;;;7.45;;
66830;SDS011;53739;44.224;22.528;2022-07-04T15:57:08;16.00;;;10.05;;
66830;SDS011;53739;44.224;22.528;2022-07-04T15:59:34;16.30;;;9.48;;
66830;SDS011;53739;44.224;22.528;2022-07-04T16:02:02;14.38;;;7.97;;
66830;SDS011;53739;44.224;22.528;2022-07-04T16:04:28;19.15;;;10.55;;
66830;SDS011;53739;44.224;22.528;2022-07-04T16:06:54;16.95;;;8.70;;
66830;SDS011;53739;44.224;22.528;2022-07-04T16:09:20;11.63;;;9.70;;
66830;SDS011;53739;44.224;22.528;2022-07-04T16:11:46;23.98;;;10.20;;
66830;SDS011;53739;44.224;22.528;2022-07-04T16:14:15;19.75;;;9.82;;
66830;SDS011;53739;44.224;22.528;2022-07-04T16:16:42;17.13;;;10.75;;
66830;SDS011;53739;44.224;22.528;2022-07-04T16:19:08;11.57;;;10.07;;
66830;SDS011;53739;44.224;22.528;2022-07-04T16:21:33;14.82;;;9.48;;
66830;SDS011;53739;44.224;22.528;2022-07-04T16:23:59;12.40;;;10.00;;
66830;SDS011;53739;44.224;22.528;2022-07-04T16:26:25;19.52;;;12.27;;
66830;SDS011;53739;44.224;22.528;2022-07-04T16:28:51;17.77;;;10.00;;
66830;SDS011;53739;44.224;22.528;2022-07-04T16:31:16;20.65;;;11.75;;
66830;SDS011;53739;44.224;22.528;2022-07-04T16:33:46;17.42;;;11.20;;
66830;SDS011;53739;44.224;22.528;2022-07-04T16:36:12;17.85;;;12.93;;
66830;SDS011;53739;44.224;22.528;2022-07-04T16:38:38;14.73;;;11.00;;
66830;SDS011;53739;44.224;22.528;2022-07-04T16:41:04;18.73;;;10.13;;
66830;SDS011;53739;44.224;22.528;2022-07-04T16:43:30;17.38;;;9.90;;
66830;SDS011;53739;44.224;22.528;2022-07-04T16:45:57;14.48;;;9.77;;
66830;SDS011;53739;44.224;22.528;2022-07-04T16:48:23;21.27;;;11.23;;
66830;SDS011;53739;44.224;22.528;2022-07-04T16:51:00;13.93;;;9.90;;
66830;SDS011;53739;44.224;22.528;2022-07-04T16:53:26;14.32;;;11.00;;
66830;SDS011;53739;44.224;22.528;2022-07-04T16:55:52;17.42;;;10.20;;
66830;SDS011;53739;44.224;22.528;2022-07-04T16:58:18;17.60;;;10.73;;